createdAt,value
2019-03-19T00:01:11.833Z,99187.52
2019-03-19T00:03:39.839Z,99188.00
2019-03-19T00:06:07.664Z,99184.56
2019-03-19T00:08:35.818Z,99185.34
2019-03-19T00:11:04.929Z,99179.73
2019-03-19T00:13:33.101Z,99184.51
2019-03-19T00:16:01.186Z,99184.51
2019-03-19T00:18:29.505Z,99187.42
2019-03-19T00:20:57.307Z,99191.11
2019-03-19T00:23:25.662Z,99187.11
2019-03-19T00:25:54.280Z,99187.66
2019-03-19T00:28:22.878Z,99184.69
2019-03-19T00:30:50.935Z,99189.71
2019-03-19T00:33:18.942Z,99195.59
2019-03-19T00:35:47.205Z,99200.67
2019-03-19T00:38:15.307Z,99197.95
2019-03-19T00:40:43.372Z,99203.30
2019-03-19T00:43:11.816Z,99203.59
2019-03-19T00:45:40.129Z,99203.59
2019-03-19T00:48:07.879Z,99202.25
2019-03-19T00:50:36.188Z,99205.42
2019-03-19T00:53:04.764Z,99201.93
2019-03-19T00:55:40.551Z,99194.45
2019-03-19T00:58:02.548Z,99191.51
2019-03-19T01:00:32.173Z,99196.59
2019-03-19T01:03:00.319Z,99204.03
2019-03-19T01:05:29.420Z,99204.27
2019-03-19T01:07:58.093Z,99204.78
2019-03-19T01:10:26.037Z,99205.60
2019-03-19T01:12:53.969Z,99198.94
2019-03-19T01:15:22.603Z,99202.67
2019-03-19T01:17:50.697Z,99202.94
2019-03-19T01:20:19.179Z,99205.54
2019-03-19T01:22:46.911Z,99209.55
2019-03-19T01:25:15.748Z,99205.27
2019-03-19T01:27:44.156Z,99211.95
2019-03-19T01:30:12.992Z,99203.91
2019-03-19T01:32:40.748Z,99203.36
2019-03-19T01:35:08.967Z,99200.98
2019-03-19T01:37:37.031Z,99202.58
2019-03-19T01:40:06.063Z,99197.50
2019-03-19T01:42:33.822Z,99202.78
2019-03-19T01:45:01.812Z,99199.33
2019-03-19T01:47:29.945Z,99203.84
2019-03-19T01:49:58.488Z,99200.61
2019-03-19T01:52:27.504Z,99197.62
2019-03-19T01:54:57.744Z,99202.14
2019-03-19T01:57:28.857Z,99203.48
2019-03-19T01:59:59.881Z,99200.28
2019-03-19T02:02:28.783Z,99202.13
2019-03-19T02:04:57.507Z,99194.88
2019-03-19T02:07:26.952Z,99201.31
2019-03-19T02:09:56.081Z,99196.48
2019-03-19T02:12:24.210Z,99208.23
2019-03-19T02:14:52.578Z,99184.34
2019-03-19T02:17:20.519Z,99203.67
2019-03-19T02:21:14.568Z,99207.98
2019-03-19T02:23:41.662Z,99209.26
2019-03-19T02:26:16.541Z,99208.70
2019-03-19T02:28:58.219Z,99216.69
2019-03-19T02:31:26.216Z,99221.50
2019-03-19T02:33:53.273Z,99218.54
2019-03-19T02:36:21.274Z,99216.37
2019-03-19T02:38:49.200Z,99216.67
2019-03-19T02:41:17.230Z,99213.70
2019-03-19T02:43:44.975Z,99215.00
2019-03-19T02:46:12.871Z,99223.84
2019-03-19T02:48:41.663Z,99226.23
2019-03-19T02:51:09.910Z,99220.59
2019-03-19T02:53:38.197Z,99222.23
2019-03-19T02:56:07.493Z,99224.94
2019-03-19T02:58:35.619Z,99220.90
2019-03-19T03:01:03.939Z,99225.14
2019-03-19T03:03:32.418Z,99228.33
2019-03-19T03:06:04.685Z,99224.84
2019-03-19T03:08:34.028Z,99231.77
2019-03-19T03:11:02.344Z,99228.83
2019-03-19T03:13:30.257Z,99225.64
2019-03-19T03:15:58.397Z,99225.91
2019-03-19T03:18:26.685Z,99227.77
2019-03-19T03:20:54.727Z,99227.25
2019-03-19T03:23:23.265Z,99232.06
2019-03-19T03:25:51.526Z,99231.22
2019-03-19T03:28:21.035Z,99233.32
2019-03-19T03:30:49.342Z,99238.67
2019-03-19T03:33:17.185Z,99242.42
2019-03-19T03:35:45.137Z,99248.82
2019-03-19T03:38:13.350Z,99206.42
2019-03-19T03:40:41.203Z,99245.89
2019-03-19T03:43:08.995Z,99249.31
2019-03-19T03:45:37.606Z,99248.80
2019-03-19T03:48:05.382Z,99249.31
2019-03-19T03:50:33.740Z,99254.16
2019-03-19T03:53:01.506Z,99261.58
2019-03-19T03:55:31.224Z,99263.46
2019-03-19T03:58:00.147Z,99267.98
2019-03-19T04:00:28.113Z,99268.25
2019-03-19T04:02:58.222Z,99274.91
2019-03-19T04:05:27.120Z,99272.49
2019-03-19T04:07:55.455Z,99277.53
2019-03-19T04:10:23.435Z,99273.80
2019-03-19T04:15:25.898Z,99275.16
2019-03-19T04:17:53.404Z,99284.73
2019-03-19T04:20:21.576Z,99283.13
2019-03-19T04:22:49.288Z,99283.41
2019-03-19T04:25:16.488Z,99286.88
2019-03-19T04:27:43.871Z,99287.13
2019-03-19T04:30:11.985Z,99289.77
2019-03-19T04:32:39.211Z,99292.44
2019-03-19T04:35:06.739Z,99292.69
2019-03-19T04:37:34.382Z,99304.95
2019-03-19T04:40:02.141Z,99311.61
2019-03-19T04:42:29.862Z,99307.02
2019-03-19T04:44:57.732Z,99314.23
2019-03-19T04:47:25.813Z,99315.08
2019-03-19T04:49:53.711Z,99314.77
2019-03-19T04:52:21.561Z,99314.50
2019-03-19T04:54:50.080Z,99317.66
2019-03-19T04:57:26.315Z,99318.45
2019-03-19T04:59:48.935Z,99316.65
2019-03-19T05:02:17.260Z,99318.77
2019-03-19T05:04:44.978Z,99329.16
2019-03-19T05:07:13.888Z,99340.31
2019-03-19T05:09:42.819Z,99347.19
2019-03-19T05:12:13.809Z,99345.86
2019-03-19T05:14:42.581Z,99347.77
2019-03-19T05:17:11.006Z,99349.09
2019-03-19T05:19:39.559Z,99355.46
2019-03-19T05:22:07.865Z,99349.89
2019-03-19T05:24:37.402Z,99348.80
2019-03-19T05:27:05.821Z,99347.77
2019-03-19T05:29:34.118Z,99350.70
2019-03-19T05:32:02.506Z,99356.88
2019-03-19T05:34:30.726Z,99362.42
2019-03-19T05:36:59.322Z,99355.46
2019-03-19T05:39:27.718Z,99352.55
2019-03-19T05:41:56.899Z,99357.09
2019-03-19T05:44:25.784Z,99363.23
2019-03-19T05:46:54.240Z,99376.08
2019-03-19T05:49:22.935Z,99374.72
2019-03-19T05:51:51.219Z,99378.20
2019-03-19T05:54:19.584Z,99374.20
2019-03-19T05:56:47.673Z,99375.81
2019-03-19T05:59:15.929Z,99372.69
2019-03-19T06:01:50.129Z,99388.16
2019-03-19T06:04:17.949Z,99392.16
2019-03-19T06:06:47.076Z,99392.46
2019-03-19T06:09:20.337Z,99392.22
2019-03-19T06:11:48.553Z,99393.53
2019-03-19T06:14:17.053Z,99401.86
2019-03-19T06:16:45.863Z,99400.22
2019-03-19T06:19:14.171Z,99402.64
2019-03-19T06:21:42.587Z,99404.28
2019-03-19T06:24:11.385Z,99408.88
2019-03-19T06:26:40.390Z,99413.64
2019-03-19T06:29:08.272Z,99407.27
2019-03-19T06:31:36.835Z,99412.30
2019-03-19T06:34:06.023Z,99415.81
2019-03-19T06:36:38.562Z,99414.48
2019-03-19T06:39:11.477Z,99414.30
2019-03-19T06:41:42.402Z,99421.16
2019-03-19T06:44:10.716Z,99424.53
2019-03-19T06:46:39.838Z,99425.33
2019-03-19T06:49:09.068Z,99422.66
2019-03-19T06:51:39.024Z,99427.50
2019-03-19T06:54:07.979Z,99397.05
2019-03-19T06:56:37.868Z,99437.36
2019-03-19T06:59:05.773Z,99432.56
2019-03-19T07:01:34.782Z,99429.46
2019-03-19T07:04:02.710Z,99432.67
2019-03-19T07:06:30.772Z,99435.64
2019-03-19T07:08:59.554Z,99446.88
2019-03-19T07:11:28.819Z,99448.27
2019-03-19T07:13:56.941Z,99450.72
2019-03-19T07:16:26.150Z,99425.45
2019-03-19T07:18:54.754Z,99452.42
2019-03-19T07:21:23.699Z,99458.89
2019-03-19T07:23:52.613Z,99458.63
2019-03-19T07:28:50.110Z,99460.08
2019-03-19T07:31:18.543Z,99471.03
2019-03-19T07:33:48.948Z,99467.02
2019-03-19T07:36:17.602Z,99466.28
2019-03-19T07:38:46.166Z,99469.06
2019-03-19T07:41:14.306Z,99466.86
2019-03-19T07:43:43.501Z,99468.80
2019-03-19T07:46:11.689Z,99471.83
2019-03-19T07:48:41.043Z,99474.31
2019-03-19T07:51:09.803Z,99480.76
2019-03-19T07:53:39.664Z,99476.28
2019-03-19T07:56:09.301Z,99478.52
2019-03-19T07:58:45.178Z,99484.11
2019-03-19T08:01:11.266Z,99482.30
2019-03-19T08:03:39.453Z,99482.64
2019-03-19T08:06:07.665Z,99474.63
2019-03-19T08:08:36.766Z,99476.88
2019-03-19T08:11:07.561Z,99479.33
2019-03-19T08:13:36.189Z,99486.83
2019-03-19T08:16:06.067Z,99492.17
2019-03-19T08:18:36.165Z,99489.26
2019-03-19T08:21:04.639Z,99497.30
2019-03-19T08:23:34.415Z,99493.59
2019-03-19T08:26:02.923Z,99491.69
2019-03-19T08:28:33.661Z,99491.95
2019-03-19T08:31:02.815Z,99503.47
2019-03-19T08:33:32.011Z,99513.66
2019-03-19T08:36:08.962Z,99505.13
2019-03-19T08:38:30.275Z,99504.36
2019-03-19T08:40:58.243Z,99502.47
2019-03-19T08:43:26.381Z,99512.47
2019-03-19T08:45:54.752Z,99515.14
2019-03-19T08:48:23.702Z,99510.89
2019-03-19T08:50:51.735Z,99513.05
2019-03-19T08:53:20.457Z,99515.75
2019-03-19T08:55:48.832Z,99519.25
2019-03-19T08:58:16.965Z,99521.87
2019-03-19T09:00:44.684Z,99521.87
2019-03-19T09:03:12.547Z,99523.78
2019-03-19T09:05:40.355Z,99521.87
2019-03-19T09:08:08.301Z,99526.66
2019-03-19T09:10:37.397Z,99525.33
2019-03-19T09:13:05.405Z,99529.09
2019-03-19T09:15:34.154Z,99530.72
2019-03-19T09:18:02.547Z,99533.67
2019-03-19T09:20:31.947Z,99525.95
2019-03-19T09:22:59.734Z,99530.53
2019-03-19T09:25:27.779Z,99530.02
2019-03-19T09:27:55.793Z,99535.16
2019-03-19T09:30:23.775Z,99530.89
2019-03-19T09:32:53.570Z,99530.89
2019-03-19T09:35:20.916Z,99531.97
2019-03-19T09:37:57.774Z,99539.22
2019-03-19T09:40:18.716Z,99543.77
2019-03-19T09:42:47.315Z,99541.34
2019-03-19T09:45:15.358Z,99538.66
2019-03-19T09:47:44.464Z,99537.32
2019-03-19T09:50:14.004Z,99534.91
2019-03-19T09:52:43.064Z,99538.14
2019-03-19T09:55:11.190Z,99541.91
2019-03-19T09:57:39.989Z,99545.14
2019-03-19T10:00:12.333Z,99541.09
2019-03-19T10:02:41.277Z,99540.53
2019-03-19T10:05:08.898Z,99544.53
2019-03-19T10:07:36.971Z,99542.84
2019-03-19T10:10:07.500Z,99547.11
2019-03-19T10:12:37.044Z,99545.46
2019-03-19T10:15:06.581Z,99543.05
2019-03-19T10:17:35.280Z,99546.79
2019-03-19T10:20:05.320Z,99549.17
2019-03-19T10:22:33.723Z,99545.65
2019-03-19T10:25:01.739Z,99543.76
2019-03-19T10:27:29.814Z,99546.16
2019-03-19T10:29:58.597Z,99555.02
2019-03-19T10:32:26.964Z,99551.83
2019-03-19T10:34:55.404Z,99554.84
2019-03-19T10:37:23.186Z,99556.03
2019-03-19T10:39:51.840Z,99553.70
2019-03-19T10:42:20.892Z,99555.56
2019-03-19T10:44:49.989Z,99557.98
2019-03-19T10:47:17.758Z,99559.32
2019-03-19T10:49:46.621Z,99555.73
2019-03-19T10:52:14.712Z,99548.72
2019-03-19T10:54:43.202Z,99546.79
2019-03-19T10:57:11.151Z,99549.69
2019-03-19T10:59:48.716Z,99545.65
2019-03-19T11:02:09.629Z,99553.68
2019-03-19T11:04:37.617Z,99558.47
2019-03-19T11:07:05.795Z,99555.27
2019-03-19T11:09:33.755Z,99556.05
2019-03-19T11:12:02.095Z,99553.38
2019-03-19T11:14:30.455Z,99551.25
2019-03-19T11:16:59.975Z,99551.25
2019-03-19T11:19:28.018Z,99552.34
2019-03-19T11:21:56.100Z,99555.59
2019-03-19T11:24:23.923Z,99553.48
2019-03-19T11:26:53.097Z,99556.43
2019-03-19T11:29:22.220Z,99549.48
2019-03-19T11:31:51.991Z,99555.67
2019-03-19T11:34:20.325Z,99557.36
2019-03-19T11:36:57.683Z,99554.73
2019-03-19T11:39:23.336Z,99556.08
2019-03-19T11:41:51.738Z,99547.56
2019-03-19T11:44:19.492Z,99546.55
2019-03-19T11:46:49.232Z,99549.27
2019-03-19T11:49:17.618Z,99549.27
2019-03-19T11:51:47.721Z,99545.52
2019-03-19T11:54:16.104Z,99545.73
2019-03-19T11:56:45.910Z,99545.48
2019-03-19T11:59:14.294Z,99546.75
2019-03-19T12:01:42.235Z,99548.05
2019-03-19T12:04:10.633Z,99549.90
2019-03-19T12:06:39.762Z,99544.02
2019-03-19T12:09:08.103Z,99552.58
2019-03-19T12:11:37.352Z,99547.77
2019-03-19T12:14:05.825Z,99544.54
2019-03-19T12:16:33.728Z,99545.32
2019-03-19T12:19:02.491Z,99544.80
2019-03-19T12:21:30.935Z,99550.67
2019-03-19T12:24:00.156Z,99545.61
2019-03-19T12:26:30.772Z,99543.24
2019-03-19T12:29:00.748Z,99540.64
2019-03-19T12:31:31.692Z,99539.89
2019-03-19T12:34:01.641Z,99541.49
2019-03-19T12:36:32.120Z,99534.53
2019-03-19T12:39:01.303Z,99532.70
2019-03-19T12:41:29.182Z,99532.14
2019-03-19T12:43:58.117Z,99531.88
2019-03-19T12:46:26.344Z,99494.06
2019-03-19T12:48:54.512Z,99525.47
2019-03-19T12:51:24.757Z,99525.73
2019-03-19T12:53:53.164Z,99530.56
2019-03-19T12:56:22.604Z,99531.91
2019-03-19T12:58:52.270Z,99528.41
2019-03-19T13:01:21.586Z,99527.05
2019-03-19T13:03:51.730Z,99520.34
2019-03-19T13:06:21.341Z,99528.15
2019-03-19T13:08:49.641Z,99519.58
2019-03-19T13:11:18.165Z,99516.36
2019-03-19T13:13:46.154Z,99517.18
2019-03-19T13:16:16.547Z,99509.39
2019-03-19T13:18:45.375Z,99504.59
2019-03-19T13:21:13.496Z,99510.48
2019-03-19T13:23:42.255Z,99517.97
2019-03-19T13:26:10.393Z,99522.00
2019-03-19T13:28:40.455Z,99517.16
2019-03-19T13:31:08.887Z,99519.31
2019-03-19T13:33:37.583Z,99517.97
2019-03-19T13:36:05.357Z,99524.15
2019-03-19T13:38:33.722Z,99517.45
2019-03-19T13:41:01.795Z,99523.63
2019-03-19T13:43:30.388Z,99530.06
2019-03-19T13:45:58.592Z,99525.48
2019-03-19T13:48:27.388Z,99526.56
2019-03-19T13:50:58.741Z,99530.31
2019-03-19T13:53:27.516Z,99522.30
2019-03-19T13:55:57.551Z,99524.19
2019-03-19T13:58:27.447Z,99528.98
2019-03-19T14:00:58.686Z,99533.04
2019-03-19T14:03:27.949Z,99527.14
2019-03-19T14:05:57.591Z,99522.06
2019-03-19T14:08:28.170Z,99529.58
2019-03-19T14:10:57.866Z,99532.00
2019-03-19T14:13:28.195Z,99534.67
2019-03-19T14:15:56.870Z,99534.14
2019-03-19T14:18:26.759Z,99536.55
2019-03-19T14:20:54.828Z,99532.28
2019-03-19T14:23:24.915Z,99535.48
2019-03-19T14:25:53.222Z,99538.97
2019-03-19T14:28:22.412Z,99531.73
2019-03-19T14:30:51.007Z,99533.36
2019-03-19T14:33:18.628Z,99534.43
2019-03-19T14:35:46.751Z,99533.88
2019-03-19T14:38:14.443Z,99533.63
2019-03-19T14:40:42.268Z,99532.53
2019-03-19T14:43:09.956Z,99539.98
2019-03-19T14:45:38.832Z,99538.89
2019-03-19T14:48:07.909Z,99535.93
2019-03-19T14:50:36.048Z,99535.61
2019-03-19T14:53:04.381Z,99537.73
2019-03-19T14:55:32.661Z,99541.13
2019-03-19T14:58:00.701Z,99535.98
2019-03-19T15:00:28.872Z,99542.94
2019-03-19T15:02:56.674Z,99543.41
2019-03-19T15:05:26.946Z,99544.39
2019-03-19T15:07:57.075Z,99534.44
2019-03-19T15:10:25.420Z,99539.46
2019-03-19T15:12:53.588Z,99541.23
2019-03-19T15:15:23.394Z,99528.40
2019-03-19T15:17:55.061Z,99538.03
2019-03-19T15:20:24.070Z,99538.84
2019-03-19T15:22:52.638Z,99535.61
2019-03-19T15:25:21.746Z,99535.74
2019-03-19T15:27:49.731Z,99533.86
2019-03-19T15:30:18.122Z,99530.64
2019-03-19T15:32:46.613Z,99530.13
2019-03-19T15:35:15.170Z,99532.53
2019-03-19T15:37:43.664Z,99535.20
2019-03-19T15:40:12.960Z,99546.16
2019-03-19T15:42:42.442Z,99541.31
2019-03-19T15:45:12.072Z,99539.66
2019-03-19T15:47:43.088Z,99545.28
2019-03-19T15:50:13.899Z,99545.03
2019-03-19T15:52:42.657Z,99547.68
2019-03-19T15:55:11.788Z,99551.42
2019-03-19T15:57:39.786Z,99546.59
2019-03-19T16:00:11.379Z,99558.62
2019-03-19T16:02:41.465Z,99553.27
2019-03-19T16:05:10.255Z,99560.13
2019-03-19T16:07:38.165Z,99563.62
2019-03-19T16:10:07.101Z,99568.41
2019-03-19T16:12:35.230Z,99564.88
2019-03-19T16:15:04.154Z,99569.28
2019-03-19T16:17:36.590Z,99572.44
2019-03-19T16:20:09.318Z,99577.95
2019-03-19T16:22:39.416Z,99579.78
2019-03-19T16:25:09.151Z,99580.08
2019-03-19T16:27:39.207Z,99585.25
2019-03-19T16:30:09.064Z,99582.95
2019-03-19T16:32:38.969Z,99585.08
2019-03-19T16:35:07.749Z,99586.69
2019-03-19T16:37:37.667Z,99589.02
2019-03-19T16:40:08.798Z,99587.66
2019-03-19T16:42:37.584Z,99593.47
2019-03-19T16:45:07.432Z,99593.88
2019-03-19T16:47:36.261Z,99601.62
2019-03-19T16:50:05.176Z,99606.58
2019-03-19T16:52:33.533Z,99604.72
2019-03-19T16:55:01.856Z,99607.66
2019-03-19T16:57:30.582Z,99610.04
2019-03-19T17:00:00.314Z,99622.09
2019-03-19T17:02:28.740Z,99622.48
2019-03-19T17:04:58.561Z,99625.45
2019-03-19T17:07:28.036Z,99628.47
2019-03-19T17:09:56.491Z,99632.23
2019-03-19T17:12:25.248Z,99637.33
2019-03-19T17:14:53.483Z,99637.87
2019-03-19T17:17:22.635Z,99645.62
2019-03-19T17:19:50.791Z,99647.47
2019-03-19T17:22:19.483Z,99651.23
2019-03-19T17:24:48.056Z,99656.04
2019-03-19T17:27:16.727Z,99658.45
2019-03-19T17:29:46.529Z,99667.23
2019-03-19T17:32:15.029Z,99670.17
2019-03-19T17:34:43.336Z,99660.69
2019-03-19T17:37:11.780Z,99669.33
2019-03-19T17:39:41.285Z,99676.09
2019-03-19T17:42:11.006Z,99676.09
2019-03-19T17:44:39.264Z,99677.67
2019-03-19T17:47:07.198Z,99682.42
2019-03-19T17:49:35.912Z,99677.92
2019-03-19T17:52:04.286Z,99684.03
2019-03-19T17:54:33.134Z,99682.92
2019-03-19T17:57:02.208Z,99693.63
2019-03-19T17:59:31.334Z,99699.03
2019-03-19T18:02:01.274Z,99692.91
2019-03-19T18:04:29.833Z,99701.46
2019-03-19T18:06:58.213Z,99702.35
2019-03-19T18:09:27.738Z,99703.91
2019-03-19T18:11:55.589Z,99708.52
2019-03-19T18:14:24.391Z,99714.71
2019-03-19T18:16:52.348Z,99711.46
2019-03-19T18:19:21.224Z,99716.20
2019-03-19T18:21:49.983Z,99724.27
2019-03-19T18:24:18.851Z,99728.34
2019-03-19T18:26:47.203Z,99729.95
2019-03-19T18:29:15.717Z,99731.31
2019-03-19T18:31:44.043Z,99732.90
2019-03-19T18:34:12.312Z,99740.38
2019-03-19T18:36:40.449Z,99748.13
2019-03-19T18:39:09.680Z,99742.21
2019-03-19T18:41:39.185Z,99749.66
2019-03-19T18:44:08.113Z,99750.72
2019-03-19T18:46:36.703Z,99754.70
2019-03-19T18:49:05.212Z,99752.28
2019-03-19T18:51:33.558Z,99752.77
2019-03-19T18:54:01.575Z,99757.55
2019-03-19T18:56:31.500Z,99754.33
2019-03-19T18:58:59.398Z,99754.41
2019-03-19T19:01:28.057Z,99762.34
2019-03-19T19:03:57.122Z,99724.50
2019-03-19T19:06:25.638Z,99754.95
2019-03-19T19:08:53.774Z,99762.69
2019-03-19T19:11:21.632Z,99770.70
2019-03-19T19:13:49.538Z,99734.58
2019-03-19T19:16:18.820Z,99780.09
2019-03-19T19:18:46.915Z,99778.84
2019-03-19T19:21:15.461Z,99771.94
2019-03-19T19:23:44.178Z,99772.19
2019-03-19T19:26:12.616Z,99777.89
2019-03-19T19:28:42.866Z,99786.95
2019-03-19T19:31:13.300Z,99783.73
2019-03-19T19:33:43.176Z,99781.52
2019-03-19T19:36:13.188Z,99781.11
2019-03-19T19:38:43.976Z,99785.14
2019-03-19T19:41:15.240Z,99793.74
2019-03-19T19:43:44.811Z,99792.98
2019-03-19T19:46:13.361Z,99798.71
2019-03-19T19:48:43.265Z,99798.14
2019-03-19T19:51:13.447Z,99797.16
2019-03-19T19:53:43.462Z,99800.05
2019-03-19T19:56:14.529Z,99803.30
2019-03-19T19:58:44.443Z,99803.95
2019-03-19T20:01:14.550Z,99810.45
2019-03-19T20:03:46.611Z,99809.08
2019-03-19T20:06:14.713Z,99806.92
2019-03-19T20:08:44.201Z,99808.04
2019-03-19T20:11:12.023Z,99808.02
2019-03-19T20:13:43.907Z,99807.91
2019-03-19T20:16:12.068Z,99804.55
2019-03-19T20:18:40.444Z,99804.77
2019-03-19T20:21:09.564Z,99810.11
2019-03-19T20:23:38.695Z,99812.78
2019-03-19T20:26:06.416Z,99815.70
2019-03-19T20:28:36.612Z,99818.84
2019-03-19T20:31:06.888Z,99825.22
2019-03-19T20:33:37.541Z,99824.43
2019-03-19T20:36:07.376Z,99832.97
2019-03-19T20:38:38.253Z,99822.00
2019-03-19T20:41:07.814Z,99830.78
2019-03-19T20:43:39.094Z,99832.63
2019-03-19T20:46:07.598Z,99833.39
2019-03-19T20:48:36.823Z,99837.03
2019-03-19T20:51:06.606Z,99842.08
2019-03-19T20:53:37.099Z,99845.05
2019-03-19T20:56:07.079Z,99847.72
2019-03-19T20:58:43.573Z,99853.22
2019-03-19T21:01:11.538Z,99857.19
2019-03-19T21:03:41.570Z,99858.87
2019-03-19T21:06:11.454Z,99868.53
2019-03-19T21:08:41.717Z,99865.55
2019-03-19T21:11:09.664Z,99868.39
2019-03-19T21:13:39.659Z,99872.16
2019-03-19T21:16:09.212Z,99881.97
2019-03-19T21:18:37.909Z,99877.06
2019-03-19T21:21:06.156Z,99878.13
2019-03-19T21:23:34.065Z,99885.36
2019-03-19T21:26:02.302Z,99887.66
2019-03-19T21:28:30.699Z,99891.90
2019-03-19T21:30:58.661Z,99884.91
2019-03-19T21:33:27.436Z,99894.16
2019-03-19T21:35:55.742Z,99888.27
2019-03-19T21:38:23.594Z,99898.47
2019-03-19T21:40:51.666Z,99903.23
2019-03-19T21:43:19.528Z,99894.46
2019-03-19T21:45:47.907Z,99897.64
2019-03-19T21:48:15.619Z,99901.61
2019-03-19T21:50:45.417Z,99901.03
2019-03-19T21:53:13.742Z,99901.48
2019-03-19T21:55:44.029Z,99897.09
2019-03-19T21:58:12.032Z,99899.48
2019-03-19T22:00:41.018Z,99909.30
2019-03-19T22:03:09.635Z,99907.41
2019-03-19T22:05:38.492Z,99913.98
2019-03-19T22:08:07.248Z,99915.27
2019-03-19T22:10:35.256Z,99912.88
2019-03-19T22:13:03.515Z,99915.79
2019-03-19T22:15:31.874Z,99914.45
2019-03-19T22:18:01.032Z,99920.27
2019-03-19T22:20:29.505Z,99921.91
2019-03-19T22:22:59.441Z,99924.89
2019-03-19T22:25:27.683Z,99921.44
2019-03-19T22:27:56.152Z,99893.17
2019-03-19T22:30:24.982Z,99922.31
2019-03-19T22:32:54.084Z,99919.91
2019-03-19T22:35:23.529Z,99930.86
2019-03-19T22:37:51.855Z,99934.00
2019-03-19T22:40:20.557Z,99928.90
2019-03-19T22:42:49.234Z,99927.80
2019-03-19T22:45:17.755Z,99928.46
2019-03-19T22:47:46.399Z,99927.95
2019-03-19T22:50:16.014Z,99935.41
2019-03-19T22:52:44.751Z,99929.44
2019-03-19T22:55:14.932Z,99930.38
2019-03-19T22:57:43.427Z,99936.54
2019-03-19T23:00:18.104Z,99942.66
2019-03-19T23:02:46.175Z,99939.40
2019-03-19T23:05:14.900Z,99948.92
2019-03-19T23:07:42.765Z,99952.15
2019-03-19T23:10:10.576Z,99946.30
2019-03-19T23:12:38.505Z,99957.95
2019-03-19T23:15:08.377Z,99952.52
2019-03-19T23:17:36.884Z,99955.78
2019-03-19T23:20:06.240Z,99957.27
2019-03-19T23:22:34.954Z,99959.94
2019-03-19T23:25:03.619Z,99963.66
2019-03-19T23:27:31.391Z,99959.84
2019-03-19T23:29:59.549Z,99960.36
2019-03-19T23:32:27.561Z,99964.28
2019-03-19T23:34:55.176Z,99959.54
2019-03-19T23:37:23.955Z,99964.33
2019-03-19T23:39:53.595Z,99961.95
2019-03-19T23:42:22.454Z,99959.77
2019-03-19T23:44:50.827Z,99968.52
2019-03-19T23:47:19.698Z,99967.46
2019-03-19T23:49:47.380Z,99968.75
2019-03-19T23:52:16.430Z,99962.59
2019-03-19T23:54:44.953Z,99964.38
2019-03-19T23:57:13.204Z,99967.05
2019-03-19T23:59:41.531Z,99971.55
